sensor_id;sensor_type;location;lat;lon;timestamp;P1;durP1;ratioP1;P2;durP2;ratioP2
27013;SDS011;14556;52.222;4.510;2022-09-09T00:00:16;5.57;;;2.77;;
27013;SDS011;14556;52.222;4.510;2022-09-09T00:03:07;7.00;;;3.23;;
27013;SDS011;14556;52.222;4.510;2022-09-09T00:05:55;4.17;;;2.77;;
27013;SDS011;14556;52.222;4.510;2022-09-09T00:08:37;5.20;;;2.87;;
27013;SDS011;14556;52.222;4.510;2022-09-09T00:11:12;3.63;;;2.47;;
27013;SDS011;14556;52.222;4.510;2022-09-09T00:13:46;6.20;;;2.43;;
27013;SDS011;14556;52.222;4.510;2022-09-09T00:16:23;6.63;;;3.03;;
27013;SDS011;14556;52.222;4.510;2022-09-09T00:19:03;5.37;;;2.70;;
27013;SDS011;14556;52.222;4.510;2022-09-09T00:21:35;5.93;;;3.20;;
27013;SDS011;14556;52.222;4.510;2022-09-09T00:24:23;4.33;;;2.63;;
27013;SDS011;14556;52.222;4.510;2022-09-09T00:26:56;6.07;;;3.33;;
27013;SDS011;14556;52.222;4.510;2022-09-09T00:29:36;8.63;;;3.93;;
27013;SDS011;14556;52.222;4.510;2022-09-09T00:32:13;5.43;;;3.00;;
27013;SDS011;14556;52.222;4.510;2022-09-09T00:34:56;4.77;;;2.97;;
27013;SDS011;14556;52.222;4.510;2022-09-09T00:37:28;7.17;;;3.40;;
27013;SDS011;14556;52.222;4.510;2022-09-09T00:39:59;7.60;;;3.57;;
27013;SDS011;14556;52.222;4.510;2022-09-09T00:42:41;6.33;;;3.60;;
27013;SDS011;14556;52.222;4.510;2022-09-09T00:48:10;9.93;;;4.13;;
27013;SDS011;14556;52.222;4.510;2022-09-09T00:50:41;5.87;;;3.07;;
27013;SDS011;14556;52.222;4.510;2022-09-09T00:56:13;9.47;;;4.67;;
27013;SDS011;14556;52.222;4.510;2022-09-09T00:58:42;8.13;;;4.07;;
27013;SDS011;14556;52.222;4.510;2022-09-09T01:01:12;4.13;;;3.20;;
27013;SDS011;14556;52.222;4.510;2022-09-09T01:06:21;12.90;;;6.13;;
27013;SDS011;14556;52.222;4.510;2022-09-09T01:11:24;11.17;;;6.67;;
27013;SDS011;14556;52.222;4.510;2022-09-09T01:13:58;9.40;;;5.40;;
27013;SDS011;14556;52.222;4.510;2022-09-09T01:16:39;9.40;;;6.37;;
27013;SDS011;14556;52.222;4.510;2022-09-09T01:19:07;10.67;;;6.47;;
27013;SDS011;14556;52.222;4.510;2022-09-09T01:21:48;11.97;;;7.00;;
27013;SDS011;14556;52.222;4.510;2022-09-09T01:24:38;13.40;;;6.63;;
27013;SDS011;14556;52.222;4.510;2022-09-09T01:27:14;8.70;;;5.13;;
27013;SDS011;14556;52.222;4.510;2022-09-09T01:29:44;11.43;;;5.80;;
27013;SDS011;14556;52.222;4.510;2022-09-09T01:35:10;10.03;;;5.63;;
27013;SDS011;14556;52.222;4.510;2022-09-09T01:37:45;13.47;;;5.87;;
27013;SDS011;14556;52.222;4.510;2022-09-09T01:40:11;9.77;;;5.00;;
27013;SDS011;14556;52.222;4.510;2022-09-09T01:42:38;11.43;;;6.23;;
27013;SDS011;14556;52.222;4.510;2022-09-09T01:45:05;8.87;;;5.57;;
27013;SDS011;14556;52.222;4.510;2022-09-09T01:47:32;11.63;;;6.10;;
27013;SDS011;14556;52.222;4.510;2022-09-09T01:49:58;9.50;;;6.63;;
27013;SDS011;14556;52.222;4.510;2022-09-09T01:52:25;9.87;;;6.73;;
27013;SDS011;14556;52.222;4.510;2022-09-09T01:54:52;9.80;;;6.57;;
27013;SDS011;14556;52.222;4.510;2022-09-09T01:57:21;10.10;;;6.83;;
27013;SDS011;14556;52.222;4.510;2022-09-09T02:02:58;10.07;;;6.73;;
27013;SDS011;14556;52.222;4.510;2022-09-09T02:08:09;10.70;;;6.33;;
27013;SDS011;14556;52.222;4.510;2022-09-09T02:10:44;10.77;;;7.33;;
27013;SDS011;14556;52.222;4.510;2022-09-09T02:13:17;11.93;;;7.43;;
27013;SDS011;14556;52.222;4.510;2022-09-09T02:15:52;12.73;;;7.47;;
27013;SDS011;14556;52.222;4.510;2022-09-09T02:18:26;16.00;;;8.30;;
27013;SDS011;14556;52.222;4.510;2022-09-09T02:20:56;11.23;;;7.73;;
27013;SDS011;14556;52.222;4.510;2022-09-09T02:23:25;7.77;;;6.13;;
27013;SDS011;14556;52.222;4.510;2022-09-09T02:25:52;12.17;;;7.87;;
27013;SDS011;14556;52.222;4.510;2022-09-09T02:28:21;10.97;;;7.27;;
27013;SDS011;14556;52.222;4.510;2022-09-09T02:30:53;9.13;;;7.23;;
27013;SDS011;14556;52.222;4.510;2022-09-09T02:33:25;12.07;;;8.43;;
27013;SDS011;14556;52.222;4.510;2022-09-09T02:35:55;10.67;;;7.27;;
27013;SDS011;14556;52.222;4.510;2022-09-09T02:38:28;10.27;;;6.80;;
27013;SDS011;14556;52.222;4.510;2022-09-09T02:40:58;11.43;;;7.87;;
27013;SDS011;14556;52.222;4.510;2022-09-09T02:43:24;12.83;;;6.97;;
27013;SDS011;14556;52.222;4.510;2022-09-09T02:45:53;11.10;;;7.27;;
27013;SDS011;14556;52.222;4.510;2022-09-09T02:56:46;9.07;;;6.27;;
27013;SDS011;14556;52.222;4.510;2022-09-09T02:59:17;13.50;;;7.27;;
27013;SDS011;14556;52.222;4.510;2022-09-09T03:01:44;9.47;;;6.80;;
27013;SDS011;14556;52.222;4.510;2022-09-09T03:04:11;9.63;;;6.10;;
27013;SDS011;14556;52.222;4.510;2022-09-09T03:06:37;10.17;;;6.13;;
27013;SDS011;14556;52.222;4.510;2022-09-09T03:09:03;9.77;;;5.33;;
27013;SDS011;14556;52.222;4.510;2022-09-09T03:11:30;10.03;;;6.10;;
27013;SDS011;14556;52.222;4.510;2022-09-09T03:13:57;11.93;;;5.33;;
27013;SDS011;14556;52.222;4.510;2022-09-09T03:16:23;9.30;;;5.27;;
27013;SDS011;14556;52.222;4.510;2022-09-09T03:18:50;11.07;;;5.63;;
27013;SDS011;14556;52.222;4.510;2022-09-09T03:21:18;10.67;;;5.63;;
27013;SDS011;14556;52.222;4.510;2022-09-09T03:23:44;7.33;;;5.10;;
27013;SDS011;14556;52.222;4.510;2022-09-09T03:26:11;8.60;;;5.00;;
27013;SDS011;14556;52.222;4.510;2022-09-09T03:28:37;7.17;;;4.60;;
27013;SDS011;14556;52.222;4.510;2022-09-09T03:31:04;6.87;;;4.20;;
27013;SDS011;14556;52.222;4.510;2022-09-09T03:33:31;8.90;;;4.53;;
27013;SDS011;14556;52.222;4.510;2022-09-09T03:35:58;8.23;;;4.90;;
27013;SDS011;14556;52.222;4.510;2022-09-09T03:38:24;11.20;;;4.50;;
27013;SDS011;14556;52.222;4.510;2022-09-09T03:40:51;7.07;;;4.20;;
27013;SDS011;14556;52.222;4.510;2022-09-09T03:43:24;7.67;;;4.23;;
27013;SDS011;14556;52.222;4.510;2022-09-09T03:45:51;10.80;;;5.00;;
27013;SDS011;14556;52.222;4.510;2022-09-09T03:48:19;9.07;;;4.13;;
27013;SDS011;14556;52.222;4.510;2022-09-09T03:50:49;5.43;;;4.20;;
27013;SDS011;14556;52.222;4.510;2022-09-09T03:53:18;7.67;;;4.23;;
27013;SDS011;14556;52.222;4.510;2022-09-09T03:55:47;6.40;;;3.97;;
27013;SDS011;14556;52.222;4.510;2022-09-09T03:58:15;7.80;;;4.33;;
27013;SDS011;14556;52.222;4.510;2022-09-09T04:00:42;10.60;;;5.10;;
27013;SDS011;14556;52.222;4.510;2022-09-09T04:03:11;7.87;;;5.37;;
27013;SDS011;14556;52.222;4.510;2022-09-09T04:05:43;8.77;;;4.70;;
27013;SDS011;14556;52.222;4.510;2022-09-09T04:08:09;9.90;;;4.83;;
27013;SDS011;14556;52.222;4.510;2022-09-09T04:10:36;7.63;;;4.73;;
27013;SDS011;14556;52.222;4.510;2022-09-09T04:13:03;10.67;;;5.20;;
27013;SDS011;14556;52.222;4.510;2022-09-09T04:15:30;10.97;;;5.40;;
27013;SDS011;14556;52.222;4.510;2022-09-09T04:17:58;7.57;;;4.40;;
27013;SDS011;14556;52.222;4.510;2022-09-09T04:20:24;10.83;;;5.47;;
27013;SDS011;14556;52.222;4.510;2022-09-09T04:22:51;9.50;;;5.00;;
27013;SDS011;14556;52.222;4.510;2022-09-09T04:25:17;7.13;;;4.70;;
27013;SDS011;14556;52.222;4.510;2022-09-09T04:27:44;8.20;;;4.93;;
27013;SDS011;14556;52.222;4.510;2022-09-09T04:30:10;9.70;;;5.50;;
27013;SDS011;14556;52.222;4.510;2022-09-09T04:32:38;13.37;;;5.50;;
27013;SDS011;14556;52.222;4.510;2022-09-09T04:35:04;10.37;;;4.60;;
27013;SDS011;14556;52.222;4.510;2022-09-09T04:37:31;8.07;;;5.27;;
27013;SDS011;14556;52.222;4.510;2022-09-09T04:39:57;11.13;;;5.90;;
27013;SDS011;14556;52.222;4.510;2022-09-09T04:42:28;6.90;;;5.17;;
27013;SDS011;14556;52.222;4.510;2022-09-09T04:44:55;10.60;;;4.97;;
27013;SDS011;14556;52.222;4.510;2022-09-09T04:47:21;8.27;;;4.87;;
27013;SDS011;14556;52.222;4.510;2022-09-09T04:49:48;7.67;;;4.57;;
27013;SDS011;14556;52.222;4.510;2022-09-09T04:52:14;8.10;;;4.70;;
27013;SDS011;14556;52.222;4.510;2022-09-09T04:54:44;8.53;;;4.27;;
27013;SDS011;14556;52.222;4.510;2022-09-09T04:57:11;7.13;;;4.67;;
27013;SDS011;14556;52.222;4.510;2022-09-09T04:59:43;7.13;;;4.20;;
27013;SDS011;14556;52.222;4.510;2022-09-09T05:02:10;7.57;;;4.43;;
27013;SDS011;14556;52.222;4.510;2022-09-09T05:04:37;9.10;;;4.23;;
27013;SDS011;14556;52.222;4.510;2022-09-09T05:07:03;6.27;;;4.17;;
27013;SDS011;14556;52.222;4.510;2022-09-09T05:09:30;6.67;;;3.70;;
27013;SDS011;14556;52.222;4.510;2022-09-09T05:11:56;8.97;;;4.37;;
27013;SDS011;14556;52.222;4.510;2022-09-09T05:14:24;5.20;;;3.70;;
27013;SDS011;14556;52.222;4.510;2022-09-09T05:16:50;9.10;;;4.10;;
27013;SDS011;14556;52.222;4.510;2022-09-09T05:19:17;5.50;;;3.67;;
27013;SDS011;14556;52.222;4.510;2022-09-09T05:21:45;5.87;;;3.30;;
27013;SDS011;14556;52.222;4.510;2022-09-09T05:24:12;5.83;;;3.70;;
27013;SDS011;14556;52.222;4.510;2022-09-09T05:26:38;6.83;;;3.40;;
27013;SDS011;14556;52.222;4.510;2022-09-09T05:29:05;5.90;;;3.83;;
27013;SDS011;14556;52.222;4.510;2022-09-09T05:31:32;7.73;;;3.80;;
27013;SDS011;14556;52.222;4.510;2022-09-09T05:33:59;7.10;;;2.97;;
27013;SDS011;14556;52.222;4.510;2022-09-09T05:36:25;7.37;;;3.40;;
27013;SDS011;14556;52.222;4.510;2022-09-09T05:38:52;7.13;;;3.03;;
27013;SDS011;14556;52.222;4.510;2022-09-09T05:41:21;9.33;;;3.20;;
27013;SDS011;14556;52.222;4.510;2022-09-09T05:43:49;5.37;;;3.00;;
27013;SDS011;14556;52.222;4.510;2022-09-09T05:46:18;6.53;;;3.33;;
27013;SDS011;14556;52.222;4.510;2022-09-09T05:48:46;7.00;;;3.10;;
27013;SDS011;14556;52.222;4.510;2022-09-09T05:51:17;6.57;;;2.80;;
27013;SDS011;14556;52.222;4.510;2022-09-09T05:53:48;4.33;;;2.70;;
27013;SDS011;14556;52.222;4.510;2022-09-09T05:56:16;6.50;;;2.60;;
27013;SDS011;14556;52.222;4.510;2022-09-09T05:58:44;6.80;;;2.87;;
27013;SDS011;14556;52.222;4.510;2022-09-09T06:01:16;5.20;;;2.53;;
27013;SDS011;14556;52.222;4.510;2022-09-09T06:03:46;5.83;;;3.30;;
27013;SDS011;14556;52.222;4.510;2022-09-09T06:06:18;4.37;;;2.73;;
27013;SDS011;14556;52.222;4.510;2022-09-09T06:08:51;5.03;;;2.60;;
27013;SDS011;14556;52.222;4.510;2022-09-09T06:11:22;4.40;;;2.43;;
27013;SDS011;14556;52.222;4.510;2022-09-09T06:13:52;5.30;;;2.53;;
27013;SDS011;14556;52.222;4.510;2022-09-09T06:16:21;5.07;;;2.33;;
27013;SDS011;14556;52.222;4.510;2022-09-09T06:18:50;6.23;;;2.80;;
27013;SDS011;14556;52.222;4.510;2022-09-09T06:21:18;7.83;;;2.73;;
27013;SDS011;14556;52.222;4.510;2022-09-09T06:23:46;6.33;;;2.47;;
27013;SDS011;14556;52.222;4.510;2022-09-09T06:26:23;5.83;;;2.83;;
27013;SDS011;14556;52.222;4.510;2022-09-09T06:28:52;4.73;;;2.50;;
27013;SDS011;14556;52.222;4.510;2022-09-09T06:31:21;5.93;;;2.20;;
27013;SDS011;14556;52.222;4.510;2022-09-09T06:33:54;6.33;;;2.73;;
27013;SDS011;14556;52.222;4.510;2022-09-09T06:36:22;4.50;;;1.90;;
27013;SDS011;14556;52.222;4.510;2022-09-09T06:38:50;5.83;;;3.10;;
27013;SDS011;14556;52.222;4.510;2022-09-09T06:41:17;8.47;;;2.60;;
27013;SDS011;14556;52.222;4.510;2022-09-09T06:43:45;6.60;;;2.43;;
27013;SDS011;14556;52.222;4.510;2022-09-09T06:46:13;9.33;;;2.73;;
27013;SDS011;14556;52.222;4.510;2022-09-09T06:48:42;4.93;;;2.30;;
27013;SDS011;14556;52.222;4.510;2022-09-09T06:51:14;8.90;;;2.33;;
27013;SDS011;14556;52.222;4.510;2022-09-09T06:53:44;8.40;;;2.47;;
27013;SDS011;14556;52.222;4.510;2022-09-09T06:56:28;7.40;;;2.50;;
27013;SDS011;14556;52.222;4.510;2022-09-09T06:58:57;9.37;;;2.77;;
27013;SDS011;14556;52.222;4.510;2022-09-09T07:01:34;7.40;;;2.47;;
27013;SDS011;14556;52.222;4.510;2022-09-09T07:04:02;5.17;;;2.80;;
27013;SDS011;14556;52.222;4.510;2022-09-09T07:06:31;11.47;;;3.80;;
27013;SDS011;14556;52.222;4.510;2022-09-09T07:09:00;6.77;;;2.70;;
27013;SDS011;14556;52.222;4.510;2022-09-09T07:11:31;8.47;;;2.63;;
27013;SDS011;14556;52.222;4.510;2022-09-09T07:14:00;9.77;;;3.47;;
27013;SDS011;14556;52.222;4.510;2022-09-09T07:16:27;9.50;;;3.57;;
27013;SDS011;14556;52.222;4.510;2022-09-09T07:18:55;3.93;;;2.70;;
27013;SDS011;14556;52.222;4.510;2022-09-09T07:21:27;6.63;;;2.77;;
27013;SDS011;14556;52.222;4.510;2022-09-09T07:23:54;10.03;;;3.63;;
27013;SDS011;14556;52.222;4.510;2022-09-09T07:26:22;8.73;;;2.77;;
27013;SDS011;14556;52.222;4.510;2022-09-09T07:28:51;8.93;;;3.63;;
27013;SDS011;14556;52.222;4.510;2022-09-09T07:31:19;6.57;;;3.83;;
27013;SDS011;14556;52.222;4.510;2022-09-09T07:33:55;8.17;;;3.77;;
27013;SDS011;14556;52.222;4.510;2022-09-09T07:38:50;6.50;;;3.97;;
27013;SDS011;14556;52.222;4.510;2022-09-09T07:41:25;8.07;;;3.73;;
27013;SDS011;14556;52.222;4.510;2022-09-09T07:43:54;7.70;;;3.70;;
27013;SDS011;14556;52.222;4.510;2022-09-09T07:46:22;6.40;;;3.63;;
27013;SDS011;14556;52.222;4.510;2022-09-09T07:48:52;7.30;;;3.60;;
27013;SDS011;14556;52.222;4.510;2022-09-09T07:51:21;6.50;;;3.40;;
27013;SDS011;14556;52.222;4.510;2022-09-09T07:53:53;11.07;;;4.10;;
27013;SDS011;14556;52.222;4.510;2022-09-09T07:56:28;12.20;;;3.80;;
27013;SDS011;14556;52.222;4.510;2022-09-09T07:58:59;5.73;;;3.53;;
27013;SDS011;14556;52.222;4.510;2022-09-09T08:01:26;7.60;;;3.90;;
27013;SDS011;14556;52.222;4.510;2022-09-09T08:03:59;7.93;;;3.30;;
27013;SDS011;14556;52.222;4.510;2022-09-09T08:06:28;11.77;;;4.27;;
27013;SDS011;14556;52.222;4.510;2022-09-09T08:08:56;8.17;;;4.40;;
27013;SDS011;14556;52.222;4.510;2022-09-09T08:11:23;8.40;;;3.63;;
27013;SDS011;14556;52.222;4.510;2022-09-09T08:13:51;7.57;;;4.10;;
27013;SDS011;14556;52.222;4.510;2022-09-09T08:16:27;10.77;;;4.10;;
27013;SDS011;14556;52.222;4.510;2022-09-09T08:18:57;10.30;;;4.23;;
27013;SDS011;14556;52.222;4.510;2022-09-09T08:21:25;7.50;;;3.73;;
27013;SDS011;14556;52.222;4.510;2022-09-09T08:23:54;9.33;;;4.27;;
27013;SDS011;14556;52.222;4.510;2022-09-09T08:26:45;7.70;;;3.97;;
27013;SDS011;14556;52.222;4.510;2022-09-09T08:29:12;9.63;;;4.47;;
27013;SDS011;14556;52.222;4.510;2022-09-09T08:31:40;7.93;;;4.13;;
27013;SDS011;14556;52.222;4.510;2022-09-09T08:34:09;8.03;;;4.00;;
27013;SDS011;14556;52.222;4.510;2022-09-09T08:36:38;8.90;;;4.03;;
27013;SDS011;14556;52.222;4.510;2022-09-09T08:39:09;8.70;;;4.93;;
27013;SDS011;14556;52.222;4.510;2022-09-09T08:44:07;9.03;;;3.60;;
27013;SDS011;14556;52.222;4.510;2022-09-09T08:49:31;8.60;;;4.03;;
27013;SDS011;14556;52.222;4.510;2022-09-09T08:52:22;8.97;;;3.50;;
27013;SDS011;14556;52.222;4.510;2022-09-09T08:54:51;5.53;;;3.40;;
27013;SDS011;14556;52.222;4.510;2022-09-09T08:57:22;8.63;;;4.10;;
27013;SDS011;14556;52.222;4.510;2022-09-09T08:59:52;7.93;;;3.80;;
27013;SDS011;14556;52.222;4.510;2022-09-09T09:02:25;7.17;;;3.63;;
27013;SDS011;14556;52.222;4.510;2022-09-09T09:07:40;5.87;;;3.37;;
27013;SDS011;14556;52.222;4.510;2022-09-09T09:10:36;7.77;;;4.00;;
27013;SDS011;14556;52.222;4.510;2022-09-09T09:13:15;9.13;;;3.57;;
27013;SDS011;14556;52.222;4.510;2022-09-09T09:15:49;7.30;;;3.13;;
27013;SDS011;14556;52.222;4.510;2022-09-09T09:18:22;8.63;;;4.13;;
27013;SDS011;14556;52.222;4.510;2022-09-09T09:21:03;7.30;;;3.60;;
27013;SDS011;14556;52.222;4.510;2022-09-09T09:23:43;9.40;;;3.93;;
27013;SDS011;14556;52.222;4.510;2022-09-09T09:26:17;10.23;;;4.00;;
27013;SDS011;14556;52.222;4.510;2022-09-09T09:28:45;9.13;;;4.50;;
27013;SDS011;14556;52.222;4.510;2022-09-09T09:31:12;9.27;;;4.40;;
27013;SDS011;14556;52.222;4.510;2022-09-09T09:36:10;9.73;;;5.07;;
27013;SDS011;14556;52.222;4.510;2022-09-09T09:38:36;4.60;;;4.00;;
27013;SDS011;14556;52.222;4.510;2022-09-09T09:41:36;11.53;;;4.27;;
27013;SDS011;14556;52.222;4.510;2022-09-09T09:44:06;6.17;;;4.07;;
27013;SDS011;14556;52.222;4.510;2022-09-09T09:47:06;8.60;;;4.90;;
27013;SDS011;14556;52.222;4.510;2022-09-09T09:49:39;7.27;;;4.77;;
27013;SDS011;14556;52.222;4.510;2022-09-09T09:52:21;10.87;;;4.87;;
27013;SDS011;14556;52.222;4.510;2022-09-09T09:54:50;10.30;;;5.40;;
27013;SDS011;14556;52.222;4.510;2022-09-09T09:57:18;11.77;;;5.13;;
27013;SDS011;14556;52.222;4.510;2022-09-09T10:02:48;11.20;;;5.60;;
27013;SDS011;14556;52.222;4.510;2022-09-09T10:05:19;10.40;;;6.27;;
27013;SDS011;14556;52.222;4.510;2022-09-09T10:08:08;11.70;;;6.13;;
27013;SDS011;14556;52.222;4.510;2022-09-09T10:19:00;12.47;;;6.03;;
27013;SDS011;14556;52.222;4.510;2022-09-09T10:21:38;8.77;;;5.97;;
27013;SDS011;14556;52.222;4.510;2022-09-09T10:27:32;11.33;;;5.30;;
27013;SDS011;14556;52.222;4.510;2022-09-09T10:32:46;12.23;;;5.33;;
27013;SDS011;14556;52.222;4.510;2022-09-09T10:35:41;11.53;;;6.10;;
27013;SDS011;14556;52.222;4.510;2022-09-09T10:38:16;9.60;;;5.20;;
27013;SDS011;14556;52.222;4.510;2022-09-09T10:46:23;8.77;;;4.67;;
27013;SDS011;14556;52.222;4.510;2022-09-09T10:49:09;9.70;;;4.23;;
27013;SDS011;14556;52.222;4.510;2022-09-09T10:54:58;7.80;;;4.03;;
27013;SDS011;14556;52.222;4.510;2022-09-09T10:57:33;8.77;;;4.17;;
27013;SDS011;14556;52.222;4.510;2022-09-09T11:00:16;7.03;;;3.50;;
27013;SDS011;14556;52.222;4.510;2022-09-09T11:02:47;6.17;;;3.40;;
27013;SDS011;14556;52.222;4.510;2022-09-09T11:05:20;7.97;;;4.20;;
27013;SDS011;14556;52.222;4.510;2022-09-09T11:07:55;6.20;;;3.90;;
27013;SDS011;14556;52.222;4.510;2022-09-09T11:13:40;5.97;;;3.70;;
27013;SDS011;14556;52.222;4.510;2022-09-09T11:16:23;7.50;;;3.67;;
27013;SDS011;14556;52.222;4.510;2022-09-09T11:18:58;7.73;;;3.87;;
27013;SDS011;14556;52.222;4.510;2022-09-09T11:21:31;8.43;;;3.87;;
27013;SDS011;14556;52.222;4.510;2022-09-09T11:24:06;6.27;;;3.13;;
27013;SDS011;14556;52.222;4.510;2022-09-09T11:27:01;6.03;;;3.23;;
27013;SDS011;14556;52.222;4.510;2022-09-09T11:35:00;5.57;;;2.40;;
27013;SDS011;14556;52.222;4.510;2022-09-09T11:40:41;5.37;;;3.27;;
27013;SDS011;14556;52.222;4.510;2022-09-09T11:43:12;5.73;;;2.60;;
27013;SDS011;14556;52.222;4.510;2022-09-09T11:45:49;8.00;;;2.57;;
27013;SDS011;14556;52.222;4.510;2022-09-09T11:48:30;6.93;;;3.10;;
27013;SDS011;14556;52.222;4.510;2022-09-09T11:53:26;2.63;;;2.30;;
27013;SDS011;14556;52.222;4.510;2022-09-09T11:56:01;6.63;;;3.30;;
27013;SDS011;14556;52.222;4.510;2022-09-09T11:58:40;5.23;;;3.50;;
27013;SDS011;14556;52.222;4.510;2022-09-09T12:01:54;6.97;;;3.00;;
27013;SDS011;14556;52.222;4.510;2022-09-09T12:04:10;5.67;;;2.67;;
27013;SDS011;14556;52.222;4.510;2022-09-09T12:12:04;7.50;;;3.10;;
27013;SDS011;14556;52.222;4.510;2022-09-09T12:14:59;6.30;;;2.70;;
27013;SDS011;14556;52.222;4.510;2022-09-09T12:17:30;5.60;;;3.07;;
27013;SDS011;14556;52.222;4.510;2022-09-09T12:20:03;4.63;;;2.87;;
27013;SDS011;14556;52.222;4.510;2022-09-09T12:30:41;8.43;;;3.80;;
27013;SDS011;14556;52.222;4.510;2022-09-09T12:33:17;7.07;;;3.60;;
27013;SDS011;14556;52.222;4.510;2022-09-09T12:35:46;5.03;;;3.17;;
27013;SDS011;14556;52.222;4.510;2022-09-09T12:38:26;6.90;;;2.80;;
27013;SDS011;14556;52.222;4.510;2022-09-09T12:41:04;6.33;;;3.00;;
27013;SDS011;14556;52.222;4.510;2022-09-09T12:43:31;4.13;;;2.57;;
27013;SDS011;14556;52.222;4.510;2022-09-09T12:46:02;6.67;;;2.53;;
27013;SDS011;14556;52.222;4.510;2022-09-09T12:48:34;5.30;;;2.70;;
27013;SDS011;14556;52.222;4.510;2022-09-09T12:51:05;4.37;;;2.43;;
27013;SDS011;14556;52.222;4.510;2022-09-09T12:53:43;4.53;;;2.87;;
27013;SDS011;14556;52.222;4.510;2022-09-09T12:56:22;4.43;;;2.80;;
27013;SDS011;14556;52.222;4.510;2022-09-09T12:58:53;5.50;;;2.87;;
27013;SDS011;14556;52.222;4.510;2022-09-09T13:01:26;7.47;;;3.93;;
27013;SDS011;14556;52.222;4.510;2022-09-09T13:03:57;6.80;;;3.40;;
27013;SDS011;14556;52.222;4.510;2022-09-09T13:06:25;6.67;;;3.10;;
27013;SDS011;14556;52.222;4.510;2022-09-09T13:08:55;5.07;;;3.20;;
27013;SDS011;14556;52.222;4.510;2022-09-09T13:11:31;6.43;;;3.20;;
27013;SDS011;14556;52.222;4.510;2022-09-09T13:14:05;3.57;;;2.90;;
27013;SDS011;14556;52.222;4.510;2022-09-09T13:16:33;6.57;;;2.60;;
27013;SDS011;14556;52.222;4.510;2022-09-09T13:19:08;5.07;;;2.93;;
27013;SDS011;14556;52.222;4.510;2022-09-09T13:21:40;4.43;;;2.63;;
27013;SDS011;14556;52.222;4.510;2022-09-09T13:24:21;3.13;;;2.83;;
27013;SDS011;14556;52.222;4.510;2022-09-09T13:26:59;5.67;;;2.30;;
27013;SDS011;14556;52.222;4.510;2022-09-09T13:29:30;3.47;;;2.67;;
27013;SDS011;14556;52.222;4.510;2022-09-09T13:34:55;6.23;;;2.57;;
27013;SDS011;14556;52.222;4.510;2022-09-09T13:37:36;5.47;;;2.37;;
27013;SDS011;14556;52.222;4.510;2022-09-09T13:40:04;2.60;;;1.83;;
27013;SDS011;14556;52.222;4.510;2022-09-09T13:42:42;2.03;;;1.83;;
27013;SDS011;14556;52.222;4.510;2022-09-09T13:45:23;2.80;;;1.77;;
27013;SDS011;14556;52.222;4.510;2022-09-09T13:47:53;5.13;;;1.73;;
27013;SDS011;14556;52.222;4.510;2022-09-09T13:50:23;2.57;;;1.97;;
27013;SDS011;14556;52.222;4.510;2022-09-09T13:52:52;3.90;;;1.90;;
27013;SDS011;14556;52.222;4.510;2022-09-09T13:55:21;3.03;;;1.93;;
27013;SDS011;14556;52.222;4.510;2022-09-09T13:57:52;4.10;;;1.83;;
27013;SDS011;14556;52.222;4.510;2022-09-09T14:00:21;4.90;;;2.30;;
27013;SDS011;14556;52.222;4.510;2022-09-09T14:02:48;3.80;;;1.80;;
27013;SDS011;14556;52.222;4.510;2022-09-09T14:05:15;2.90;;;1.60;;
27013;SDS011;14556;52.222;4.510;2022-09-09T14:07:42;3.00;;;1.60;;
27013;SDS011;14556;52.222;4.510;2022-09-09T14:10:10;3.03;;;1.50;;
27013;SDS011;14556;52.222;4.510;2022-09-09T14:12:38;3.17;;;1.57;;
27013;SDS011;14556;52.222;4.510;2022-09-09T14:15:05;3.00;;;1.40;;
27013;SDS011;14556;52.222;4.510;2022-09-09T14:17:33;2.50;;;1.20;;
27013;SDS011;14556;52.222;4.510;2022-09-09T14:20:05;3.27;;;1.33;;
27013;SDS011;14556;52.222;4.510;2022-09-09T14:22:35;3.37;;;1.10;;
27013;SDS011;14556;52.222;4.510;2022-09-09T14:25:02;2.97;;;1.07;;
27013;SDS011;14556;52.222;4.510;2022-09-09T14:27:29;3.83;;;1.20;;
27013;SDS011;14556;52.222;4.510;2022-09-09T14:29:56;5.17;;;1.27;;
27013;SDS011;14556;52.222;4.510;2022-09-09T14:32:23;3.03;;;1.07;;
27013;SDS011;14556;52.222;4.510;2022-09-09T14:34:50;5.43;;;1.20;;
27013;SDS011;14556;52.222;4.510;2022-09-09T14:37:17;2.77;;;1.00;;
27013;SDS011;14556;52.222;4.510;2022-09-09T14:39:44;2.97;;;0.93;;
27013;SDS011;14556;52.222;4.510;2022-09-09T14:42:10;2.77;;;0.80;;
27013;SDS011;14556;52.222;4.510;2022-09-09T14:44:37;1.93;;;1.00;;
27013;SDS011;14556;52.222;4.510;2022-09-09T14:47:05;3.07;;;0.83;;
27013;SDS011;14556;52.222;4.510;2022-09-09T14:49:32;4.40;;;1.10;;
27013;SDS011;14556;52.222;4.510;2022-09-09T14:51:58;5.43;;;1.13;;
27013;SDS011;14556;52.222;4.510;2022-09-09T14:54:25;2.50;;;1.10;;
27013;SDS011;14556;52.222;4.510;2022-09-09T14:56:52;3.10;;;1.07;;
27013;SDS011;14556;52.222;4.510;2022-09-09T14:59:18;2.73;;;1.47;;
27013;SDS011;14556;52.222;4.510;2022-09-09T15:01:45;3.90;;;1.43;;
27013;SDS011;14556;52.222;4.510;2022-09-09T15:04:11;3.90;;;1.57;;
27013;SDS011;14556;52.222;4.510;2022-09-09T15:06:40;3.57;;;1.20;;
27013;SDS011;14556;52.222;4.510;2022-09-09T15:09:08;3.40;;;1.10;;
27013;SDS011;14556;52.222;4.510;2022-09-09T15:11:35;6.17;;;1.70;;
27013;SDS011;14556;52.222;4.510;2022-09-09T15:14:04;3.30;;;1.00;;
27013;SDS011;14556;52.222;4.510;2022-09-09T15:16:32;3.20;;;1.30;;
27013;SDS011;14556;52.222;4.510;2022-09-09T15:18:59;2.93;;;1.50;;
27013;SDS011;14556;52.222;4.510;2022-09-09T15:21:30;3.37;;;0.90;;
27013;SDS011;14556;52.222;4.510;2022-09-09T15:23:59;4.93;;;1.23;;
27013;SDS011;14556;52.222;4.510;2022-09-09T15:26:26;6.53;;;1.17;;
27013;SDS011;14556;52.222;4.510;2022-09-09T15:28:53;4.23;;;1.10;;
27013;SDS011;14556;52.222;4.510;2022-09-09T15:31:25;5.80;;;1.27;;
27013;SDS011;14556;52.222;4.510;2022-09-09T15:33:55;5.20;;;1.33;;
27013;SDS011;14556;52.222;4.510;2022-09-09T15:36:30;6.43;;;1.67;;
27013;SDS011;14556;52.222;4.510;2022-09-09T15:38:59;4.70;;;1.47;;
27013;SDS011;14556;52.222;4.510;2022-09-09T15:41:27;3.10;;;1.10;;
27013;SDS011;14556;52.222;4.510;2022-09-09T15:43:55;6.90;;;1.83;;
27013;SDS011;14556;52.222;4.510;2022-09-09T15:46:24;6.20;;;1.50;;
27013;SDS011;14556;52.222;4.510;2022-09-09T15:51:41;3.70;;;1.47;;
27013;SDS011;14556;52.222;4.510;2022-09-09T15:54:11;1.80;;;1.23;;
27013;SDS011;14556;52.222;4.510;2022-09-09T15:56:40;3.97;;;1.20;;
27013;SDS011;14556;52.222;4.510;2022-09-09T15:59:07;3.00;;;1.10;;
27013;SDS011;14556;52.222;4.510;2022-09-09T16:01:35;3.10;;;1.10;;
27013;SDS011;14556;52.222;4.510;2022-09-09T16:04:02;3.40;;;1.77;;
27013;SDS011;14556;52.222;4.510;2022-09-09T16:06:29;3.53;;;1.30;;
27013;SDS011;14556;52.222;4.510;2022-09-09T16:08:56;2.73;;;1.40;;
27013;SDS011;14556;52.222;4.510;2022-09-09T16:13:53;5.23;;;1.60;;
27013;SDS011;14556;52.222;4.510;2022-09-09T16:16:22;2.40;;;1.27;;
27013;SDS011;14556;52.222;4.510;2022-09-09T16:18:57;6.83;;;1.77;;
27013;SDS011;14556;52.222;4.510;2022-09-09T16:21:26;5.53;;;1.60;;
27013;SDS011;14556;52.222;4.510;2022-09-09T16:23:58;4.67;;;1.47;;
27013;SDS011;14556;52.222;4.510;2022-09-09T16:26:26;4.60;;;1.33;;
27013;SDS011;14556;52.222;4.510;2022-09-09T16:28:54;5.30;;;1.43;;
27013;SDS011;14556;52.222;4.510;2022-09-09T16:31:21;3.87;;;1.50;;
27013;SDS011;14556;52.222;4.510;2022-09-09T16:33:50;3.03;;;1.37;;
27013;SDS011;14556;52.222;4.510;2022-09-09T16:36:21;4.67;;;2.20;;
27013;SDS011;14556;52.222;4.510;2022-09-09T16:38:55;4.37;;;1.73;;
27013;SDS011;14556;52.222;4.510;2022-09-09T16:41:27;4.33;;;2.10;;
27013;SDS011;14556;52.222;4.510;2022-09-09T16:43:58;7.77;;;1.87;;
27013;SDS011;14556;52.222;4.510;2022-09-09T16:46:28;2.70;;;1.30;;
27013;SDS011;14556;52.222;4.510;2022-09-09T16:48:57;6.73;;;2.10;;
27013;SDS011;14556;52.222;4.510;2022-09-09T16:51:26;3.50;;;1.50;;